sensor_id;sensor_type;location;lat;lon;timestamp;pressure;altitude;pressure_sealevel;temperature;humidity
53514;BME280;39768;54.148;12.174;2024-03-25T00:03:13;99624.53;;;4.40;71.12
53514;BME280;39768;54.148;12.174;2024-03-25T00:07:14;99619.09;;;4.43;71.45
53514;BME280;39768;54.148;12.174;2024-03-25T00:11:18;99627.22;;;4.60;71.54
53514;BME280;39768;54.148;12.174;2024-03-25T00:15:20;99629.72;;;4.84;68.41
53514;BME280;39768;54.148;12.174;2024-03-25T00:19:21;99637.81;;;4.62;70.30
53514;BME280;39768;54.148;12.174;2024-03-25T00:23:22;99645.22;;;4.75;68.98
53514;BME280;39768;54.148;12.174;2024-03-25T00:27:22;99644.81;;;4.64;69.94
53514;BME280;39768;54.148;12.174;2024-03-25T00:31:23;99647.75;;;4.79;67.29
53514;BME280;39768;54.148;12.174;2024-03-25T00:35:25;99655.06;;;4.94;67.60
53514;BME280;39768;54.148;12.174;2024-03-25T00:39:26;99655.31;;;4.88;68.01
53514;BME280;39768;54.148;12.174;2024-03-25T00:43:27;99658.44;;;4.97;66.97
53514;BME280;39768;54.148;12.174;2024-03-25T00:47:28;99672.44;;;5.02;66.36
53514;BME280;39768;54.148;12.174;2024-03-25T00:51:29;99668.81;;;4.64;69.93
53514;BME280;39768;54.148;12.174;2024-03-25T00:55:30;99670.81;;;4.80;68.09
53514;BME280;39768;54.148;12.174;2024-03-25T00:59:31;99666.00;;;4.47;71.13
53514;BME280;39768;54.148;12.174;2024-03-25T01:03:32;99672.19;;;4.88;68.80
53514;BME280;39768;54.148;12.174;2024-03-25T01:07:34;99667.25;;;4.18;74.11
53514;BME280;39768;54.148;12.174;2024-03-25T01:11:43;99664.19;;;4.05;74.58
53514;BME280;39768;54.148;12.174;2024-03-25T01:15:45;99657.69;;;3.91;75.69
53514;BME280;39768;54.148;12.174;2024-03-25T01:19:45;99657.91;;;3.85;76.16
53514;BME280;39768;54.148;12.174;2024-03-25T01:23:46;99674.03;;;4.03;75.80
53514;BME280;39768;54.148;12.174;2024-03-25T01:27:47;99674.25;;;4.41;73.74
53514;BME280;39768;54.148;12.174;2024-03-25T01:31:48;99665.69;;;4.75;72.20
53514;BME280;39768;54.148;12.174;2024-03-25T01:35:49;99670.59;;;4.44;72.49
53514;BME280;39768;54.148;12.174;2024-03-25T01:39:51;99684.88;;;4.83;70.05
53514;BME280;39768;54.148;12.174;2024-03-25T01:43:52;99687.81;;;4.77;69.26
53514;BME280;39768;54.148;12.174;2024-03-25T01:47:53;99691.50;;;4.95;68.66
53514;BME280;39768;54.148;12.174;2024-03-25T01:51:56;99703.28;;;4.49;70.99
53514;BME280;39768;54.148;12.174;2024-03-25T01:55:58;99704.91;;;4.31;73.06
53514;BME280;39768;54.148;12.174;2024-03-25T02:00:00;99709.09;;;4.36;73.44
53514;BME280;39768;54.148;12.174;2024-03-25T02:04:06;99716.22;;;4.78;72.07
53514;BME280;39768;54.148;12.174;2024-03-25T02:08:09;99716.47;;;4.72;72.55
53514;BME280;39768;54.148;12.174;2024-03-25T02:12:10;99723.56;;;4.51;72.04
53514;BME280;39768;54.148;12.174;2024-03-25T02:16:11;99729.28;;;4.64;71.71
53514;BME280;39768;54.148;12.174;2024-03-25T02:20:12;99736.69;;;4.77;71.49
53514;BME280;39768;54.148;12.174;2024-03-25T02:24:19;99740.28;;;4.97;69.44
53514;BME280;39768;54.148;12.174;2024-03-25T02:28:21;99743.50;;;5.05;69.00
53514;BME280;39768;54.148;12.174;2024-03-25T02:32:22;99750.78;;;5.01;69.29
53514;BME280;39768;54.148;12.174;2024-03-25T02:36:23;99754.75;;;5.11;69.80
53514;BME280;39768;54.148;12.174;2024-03-25T02:40:24;99753.28;;;4.64;73.38
53514;BME280;39768;54.148;12.174;2024-03-25T02:44:26;99755.16;;;4.62;73.47
53514;BME280;39768;54.148;12.174;2024-03-25T02:48:27;99761.63;;;4.97;71.28
53514;BME280;39768;54.148;12.174;2024-03-25T02:52:28;99764.19;;;5.20;69.45
53514;BME280;39768;54.148;12.174;2024-03-25T02:56:29;99768.13;;;4.91;71.53
53514;BME280;39768;54.148;12.174;2024-03-25T03:00:30;99773.75;;;4.63;73.16
53514;BME280;39768;54.148;12.174;2024-03-25T03:04:30;99780.72;;;4.88;72.86
53514;BME280;39768;54.148;12.174;2024-03-25T03:08:31;99787.38;;;4.98;69.60
53514;BME280;39768;54.148;12.174;2024-03-25T03:12:34;99787.38;;;4.98;70.95
53514;BME280;39768;54.148;12.174;2024-03-25T03:16:35;99794.06;;;5.28;69.40
53514;BME280;39768;54.148;12.174;2024-03-25T03:20:36;99796.41;;;5.16;69.67
53514;BME280;39768;54.148;12.174;2024-03-25T03:24:36;99802.06;;;5.28;69.17
53514;BME280;39768;54.148;12.174;2024-03-25T03:28:37;99810.25;;;5.45;67.53
53514;BME280;39768;54.148;12.174;2024-03-25T03:32:38;99805.75;;;5.46;67.72
53514;BME280;39768;54.148;12.174;2024-03-25T03:36:39;99809.16;;;5.29;67.98
53514;BME280;39768;54.148;12.174;2024-03-25T03:40:41;99816.13;;;5.54;67.03
53514;BME280;39768;54.148;12.174;2024-03-25T03:44:41;99829.19;;;5.60;66.50
53514;BME280;39768;54.148;12.174;2024-03-25T03:48:42;99829.88;;;4.60;71.60
53514;BME280;39768;54.148;12.174;2024-03-25T03:52:43;99834.94;;;4.45;75.01
53514;BME280;39768;54.148;12.174;2024-03-25T03:56:44;99837.78;;;4.18;75.40
53514;BME280;39768;54.148;12.174;2024-03-25T04:00:44;99843.84;;;4.22;75.74
53514;BME280;39768;54.148;12.174;2024-03-25T04:04:45;99850.69;;;4.05;77.69
53514;BME280;39768;54.148;12.174;2024-03-25T04:08:46;99849.50;;;4.13;77.78
53514;BME280;39768;54.148;12.174;2024-03-25T04:12:48;99862.38;;;4.01;79.65
53514;BME280;39768;54.148;12.174;2024-03-25T04:16:49;99867.44;;;4.54;74.11
53514;BME280;39768;54.148;12.174;2024-03-25T04:20:53;99866.81;;;4.69;73.75
53514;BME280;39768;54.148;12.174;2024-03-25T04:24:54;99865.84;;;4.72;72.66
53514;BME280;39768;54.148;12.174;2024-03-25T04:28:55;99864.34;;;4.87;72.54
53514;BME280;39768;54.148;12.174;2024-03-25T04:32:55;99874.88;;;4.68;73.24
53514;BME280;39768;54.148;12.174;2024-03-25T04:36:56;99879.72;;;4.58;74.08
53514;BME280;39768;54.148;12.174;2024-03-25T04:40:57;99880.38;;;4.65;74.21
53514;BME280;39768;54.148;12.174;2024-03-25T04:44:58;99885.34;;;4.51;73.98
53514;BME280;39768;54.148;12.174;2024-03-25T04:48:59;99893.50;;;4.69;73.06
53514;BME280;39768;54.148;12.174;2024-03-25T04:53:00;99902.56;;;4.20;76.60
53514;BME280;39768;54.148;12.174;2024-03-25T04:57:00;99907.03;;;4.41;74.74
53514;BME280;39768;54.148;12.174;2024-03-25T05:01:03;99921.06;;;4.23;76.99
53514;BME280;39768;54.148;12.174;2024-03-25T05:05:04;99926.78;;;4.36;75.04
53514;BME280;39768;54.148;12.174;2024-03-25T05:09:05;99929.03;;;3.50;82.06
53514;BME280;39768;54.148;12.174;2024-03-25T05:13:07;99942.56;;;3.94;79.09
53514;BME280;39768;54.148;12.174;2024-03-25T05:17:08;99935.94;;;3.81;79.75
53514;BME280;39768;54.148;12.174;2024-03-25T05:21:10;99936.16;;;3.99;78.61
53514;BME280;39768;54.148;12.174;2024-03-25T05:25:11;99944.19;;;4.23;78.45
53514;BME280;39768;54.148;12.174;2024-03-25T05:29:12;99955.63;;;4.01;78.99
53514;BME280;39768;54.148;12.174;2024-03-25T05:33:13;99958.44;;;4.22;78.00
53514;BME280;39768;54.148;12.174;2024-03-25T05:37:14;99971.34;;;4.34;79.30
53514;BME280;39768;54.148;12.174;2024-03-25T05:41:15;99972.94;;;4.38;77.85
53514;BME280;39768;54.148;12.174;2024-03-25T05:45:16;99984.81;;;4.04;80.15
53514;BME280;39768;54.148;12.174;2024-03-25T05:49:16;99985.50;;;4.10;80.48
53514;BME280;39768;54.148;12.174;2024-03-25T05:53:18;99991.31;;;3.71;83.36
53514;BME280;39768;54.148;12.174;2024-03-25T05:57:18;100001.94;;;3.46;84.58
53514;BME280;39768;54.148;12.174;2024-03-25T06:01:19;100005.31;;;3.51;83.97
53514;BME280;39768;54.148;12.174;2024-03-25T06:05:20;100009.13;;;3.69;83.07
53514;BME280;39768;54.148;12.174;2024-03-25T06:09:21;100020.72;;;3.68;83.32
53514;BME280;39768;54.148;12.174;2024-03-25T06:13:22;100026.19;;;3.90;80.62
53514;BME280;39768;54.148;12.174;2024-03-25T06:17:23;100025.56;;;4.06;80.39
53514;BME280;39768;54.148;12.174;2024-03-25T06:21:23;100030.75;;;4.11;79.71
53514;BME280;39768;54.148;12.174;2024-03-25T06:25:24;100034.94;;;4.20;78.32
53514;BME280;39768;54.148;12.174;2024-03-25T06:29:25;100037.34;;;4.01;79.46
53514;BME280;39768;54.148;12.174;2024-03-25T06:33:26;100047.38;;;3.93;80.41
53514;BME280;39768;54.148;12.174;2024-03-25T06:37:45;100056.25;;;4.20;78.85
53514;BME280;39768;54.148;12.174;2024-03-25T06:41:46;100065.22;;;4.17;79.15
53514;BME280;39768;54.148;12.174;2024-03-25T06:45:47;100074.06;;;3.91;81.34
53514;BME280;39768;54.148;12.174;2024-03-25T06:49:48;100077.72;;;3.89;81.54
53514;BME280;39768;54.148;12.174;2024-03-25T06:53:49;100074.91;;;4.20;79.16
53514;BME280;39768;54.148;12.174;2024-03-25T06:57:50;100080.09;;;3.96;79.67
53514;BME280;39768;54.148;12.174;2024-03-25T07:01:51;100092.19;;;3.80;81.67
53514;BME280;39768;54.148;12.174;2024-03-25T07:05:52;100097.88;;;3.96;80.38
53514;BME280;39768;54.148;12.174;2024-03-25T07:09:54;100102.72;;;3.85;81.02
53514;BME280;39768;54.148;12.174;2024-03-25T07:13:55;100109.16;;;4.04;79.87
53514;BME280;39768;54.148;12.174;2024-03-25T07:17:57;100114.16;;;3.88;80.47
53514;BME280;39768;54.148;12.174;2024-03-25T07:21:58;100127.97;;;3.99;81.35
53514;BME280;39768;54.148;12.174;2024-03-25T07:25:59;100124.78;;;4.16;78.95
53514;BME280;39768;54.148;12.174;2024-03-25T07:29:59;100131.28;;;4.34;78.70
53514;BME280;39768;54.148;12.174;2024-03-25T07:34:00;100142.63;;;4.13;78.65
53514;BME280;39768;54.148;12.174;2024-03-25T07:38:01;100151.53;;;4.12;79.05
53514;BME280;39768;54.148;12.174;2024-03-25T07:42:04;100155.91;;;4.14;78.10
53514;BME280;39768;54.148;12.174;2024-03-25T07:46:04;100158.47;;;4.44;77.59
53514;BME280;39768;54.148;12.174;2024-03-25T07:50:06;100170.84;;;4.20;77.88
53514;BME280;39768;54.148;12.174;2024-03-25T07:54:07;100162.97;;;4.66;75.64
53514;BME280;39768;54.148;12.174;2024-03-25T07:58:10;100175.56;;;5.11;74.12
53514;BME280;39768;54.148;12.174;2024-03-25T08:02:11;100174.91;;;5.06;73.48
53514;BME280;39768;54.148;12.174;2024-03-25T08:06:12;100170.50;;;5.05;73.30
53514;BME280;39768;54.148;12.174;2024-03-25T08:10:13;100176.28;;;4.93;71.07
53514;BME280;39768;54.148;12.174;2024-03-25T08:14:13;100184.84;;;4.77;73.51
53514;BME280;39768;54.148;12.174;2024-03-25T08:18:14;100192.75;;;4.54;75.26
53514;BME280;39768;54.148;12.174;2024-03-25T08:22:15;100201.19;;;4.67;75.13
53514;BME280;39768;54.148;12.174;2024-03-25T08:26:16;100201.75;;;4.76;74.15
53514;BME280;39768;54.148;12.174;2024-03-25T08:30:17;100204.38;;;4.78;74.39
53514;BME280;39768;54.148;12.174;2024-03-25T08:34:18;100207.78;;;5.06;72.86
53514;BME280;39768;54.148;12.174;2024-03-25T08:38:19;100216.84;;;5.02;71.92
53514;BME280;39768;54.148;12.174;2024-03-25T08:42:20;100218.59;;;4.79;71.88
53514;BME280;39768;54.148;12.174;2024-03-25T08:46:22;100222.69;;;5.37;70.29
53514;BME280;39768;54.148;12.174;2024-03-25T08:50:22;100221.19;;;5.05;69.81
53514;BME280;39768;54.148;12.174;2024-03-25T08:54:23;100225.72;;;5.51;67.44
53514;BME280;39768;54.148;12.174;2024-03-25T08:58:24;100227.28;;;5.80;65.65
53514;BME280;39768;54.148;12.174;2024-03-25T09:02:24;100236.44;;;5.96;66.89
53514;BME280;39768;54.148;12.174;2024-03-25T09:06:25;100250.91;;;5.44;64.39
53514;BME280;39768;54.148;12.174;2024-03-25T09:10:28;100245.25;;;5.98;65.75
53514;BME280;39768;54.148;12.174;2024-03-25T09:14:48;100255.06;;;5.53;64.21
53514;BME280;39768;54.148;12.174;2024-03-25T09:18:49;100254.00;;;5.80;64.10
53514;BME280;39768;54.148;12.174;2024-03-25T09:22:50;100257.06;;;6.14;64.42
53514;BME280;39768;54.148;12.174;2024-03-25T09:26:50;100257.91;;;5.48;63.74
53514;BME280;39768;54.148;12.174;2024-03-25T09:30:52;100257.22;;;5.88;61.81
53514;BME280;39768;54.148;12.174;2024-03-25T09:34:53;100268.63;;;5.70;62.29
53514;BME280;39768;54.148;12.174;2024-03-25T09:38:53;100262.56;;;6.11;62.05
53514;BME280;39768;54.148;12.174;2024-03-25T09:42:56;100272.38;;;6.33;60.75
53514;BME280;39768;54.148;12.174;2024-03-25T09:46:57;100280.78;;;5.78;61.78
53514;BME280;39768;54.148;12.174;2024-03-25T09:50:58;100290.00;;;5.93;62.25
53514;BME280;39768;54.148;12.174;2024-03-25T09:54:59;100294.59;;;5.66;61.49
53514;BME280;39768;54.148;12.174;2024-03-25T09:59:00;100304.22;;;5.47;61.69
53514;BME280;39768;54.148;12.174;2024-03-25T10:03:02;100303.84;;;5.81;59.74
53514;BME280;39768;54.148;12.174;2024-03-25T10:07:03;100316.13;;;5.37;60.99
53514;BME280;39768;54.148;12.174;2024-03-25T10:11:04;100318.47;;;5.21;61.99
53514;BME280;39768;54.148;12.174;2024-03-25T10:15:05;100318.09;;;5.57;61.57
53514;BME280;39768;54.148;12.174;2024-03-25T10:19:06;100320.41;;;5.67;60.33
53514;BME280;39768;54.148;12.174;2024-03-25T10:23:10;100321.78;;;5.54;59.50
53514;BME280;39768;54.148;12.174;2024-03-25T10:27:19;100331.28;;;5.85;58.78
53514;BME280;39768;54.148;12.174;2024-03-25T10:31:20;100333.56;;;6.18;56.97
53514;BME280;39768;54.148;12.174;2024-03-25T10:35:21;100333.66;;;6.15;56.07
53514;BME280;39768;54.148;12.174;2024-03-25T10:39:26;100342.38;;;6.88;54.02
53514;BME280;39768;54.148;12.174;2024-03-25T10:43:28;100338.22;;;6.13;55.18
53514;BME280;39768;54.148;12.174;2024-03-25T10:47:30;100344.13;;;5.52;57.55
53514;BME280;39768;54.148;12.174;2024-03-25T10:51:32;100336.94;;;6.00;57.18
53514;BME280;39768;54.148;12.174;2024-03-25T10:55:36;100342.03;;;5.60;56.63
53514;BME280;39768;54.148;12.174;2024-03-25T10:59:37;100340.91;;;5.42;58.98
53514;BME280;39768;54.148;12.174;2024-03-25T11:03:41;100345.88;;;5.76;56.66
53514;BME280;39768;54.148;12.174;2024-03-25T11:07:42;100341.81;;;5.89;56.43
53514;BME280;39768;54.148;12.174;2024-03-25T11:11:44;100341.34;;;5.78;54.85
53514;BME280;39768;54.148;12.174;2024-03-25T11:15:47;100349.06;;;6.32;53.84
53514;BME280;39768;54.148;12.174;2024-03-25T11:19:48;100352.75;;;6.06;53.81
53514;BME280;39768;54.148;12.174;2024-03-25T11:23:49;100356.56;;;6.90;50.29
53514;BME280;39768;54.148;12.174;2024-03-25T11:27:49;100355.13;;;6.81;50.61
53514;BME280;39768;54.148;12.174;2024-03-25T11:31:51;100354.94;;;6.64;48.52
53514;BME280;39768;54.148;12.174;2024-03-25T11:35:53;100363.72;;;6.67;46.35
53514;BME280;39768;54.148;12.174;2024-03-25T11:40:02;100375.91;;;6.52;47.32
53514;BME280;39768;54.148;12.174;2024-03-25T11:44:04;100365.75;;;7.04;47.90
53514;BME280;39768;54.148;12.174;2024-03-25T11:48:06;100362.72;;;6.92;46.84
53514;BME280;39768;54.148;12.174;2024-03-25T11:52:06;100369.88;;;6.24;47.96
53514;BME280;39768;54.148;12.174;2024-03-25T11:56:08;100368.91;;;6.27;46.81
53514;BME280;39768;54.148;12.174;2024-03-25T12:00:09;100373.13;;;6.56;46.24
53514;BME280;39768;54.148;12.174;2024-03-25T12:04:17;100368.97;;;6.70;46.50
53514;BME280;39768;54.148;12.174;2024-03-25T12:08:18;100374.44;;;6.44;47.77
53514;BME280;39768;54.148;12.174;2024-03-25T12:12:19;100374.06;;;6.31;46.95
53514;BME280;39768;54.148;12.174;2024-03-25T12:16:20;100367.88;;;6.96;47.01
53514;BME280;39768;54.148;12.174;2024-03-25T12:20:21;100375.19;;;6.71;44.47
53514;BME280;39768;54.148;12.174;2024-03-25T12:24:23;100365.44;;;7.12;45.57
53514;BME280;39768;54.148;12.174;2024-03-25T12:28:24;100364.34;;;6.96;47.04
53514;BME280;39768;54.148;12.174;2024-03-25T12:32:36;100363.22;;;6.79;46.67
53514;BME280;39768;54.148;12.174;2024-03-25T12:36:37;100365.13;;;6.54;46.98
53514;BME280;39768;54.148;12.174;2024-03-25T12:40:39;100353.69;;;6.50;46.90
53514;BME280;39768;54.148;12.174;2024-03-25T12:44:40;100358.44;;;6.66;46.81
53514;BME280;39768;54.148;12.174;2024-03-25T12:48:41;100361.59;;;6.75;46.09
53514;BME280;39768;54.148;12.174;2024-03-25T12:52:42;100367.50;;;6.40;47.77
53514;BME280;39768;54.148;12.174;2024-03-25T12:56:43;100367.53;;;6.62;48.46
53514;BME280;39768;54.148;12.174;2024-03-25T13:00:44;100367.16;;;6.26;48.43
53514;BME280;39768;54.148;12.174;2024-03-25T13:04:44;100372.31;;;6.75;46.49
53514;BME280;39768;54.148;12.174;2024-03-25T13:08:45;100369.47;;;6.58;47.72
53514;BME280;39768;54.148;12.174;2024-03-25T13:12:46;100377.34;;;6.61;45.84
53514;BME280;39768;54.148;12.174;2024-03-25T13:16:48;100382.56;;;7.08;45.81
53514;BME280;39768;54.148;12.174;2024-03-25T13:20:49;100360.78;;;7.17;47.58
53514;BME280;39768;54.148;12.174;2024-03-25T13:24:50;100377.19;;;7.08;46.24
53514;BME280;39768;54.148;12.174;2024-03-25T13:28:50;100365.19;;;7.38;46.09
53514;BME280;39768;54.148;12.174;2024-03-25T13:32:51;100374.34;;;6.91;45.42
53514;BME280;39768;54.148;12.174;2024-03-25T13:36:53;100376.06;;;6.48;46.01
53514;BME280;39768;54.148;12.174;2024-03-25T13:40:53;100379.47;;;6.97;43.69
53514;BME280;39768;54.148;12.174;2024-03-25T13:44:54;100370.38;;;7.01;44.70
53514;BME280;39768;54.148;12.174;2024-03-25T13:48:55;100373.50;;;7.32;44.07
53514;BME280;39768;54.148;12.174;2024-03-25T13:52:56;100384.06;;;7.15;44.83
53514;BME280;39768;54.148;12.174;2024-03-25T13:56:57;100375.25;;;6.46;46.02
53514;BME280;39768;54.148;12.174;2024-03-25T14:00:58;100375.50;;;6.85;46.16
53514;BME280;39768;54.148;12.174;2024-03-25T14:05:00;100383.63;;;7.04;44.98
53514;BME280;39768;54.148;12.174;2024-03-25T14:09:00;100379.78;;;6.67;46.18
53514;BME280;39768;54.148;12.174;2024-03-25T14:13:02;100380.09;;;6.81;45.66
53514;BME280;39768;54.148;12.174;2024-03-25T14:17:04;100379.50;;;6.51;46.44
53514;BME280;39768;54.148;12.174;2024-03-25T14:21:05;100363.44;;;6.06;47.44
53514;BME280;39768;54.148;12.174;2024-03-25T14:25:06;100368.16;;;6.68;47.15
53514;BME280;39768;54.148;12.174;2024-03-25T14:29:08;100365.09;;;6.32;47.99
53514;BME280;39768;54.148;12.174;2024-03-25T14:33:09;100363.03;;;5.94;47.83
53514;BME280;39768;54.148;12.174;2024-03-25T14:37:10;100365.28;;;6.04;47.90
53514;BME280;39768;54.148;12.174;2024-03-25T14:41:12;100364.16;;;6.33;46.55
53514;BME280;39768;54.148;12.174;2024-03-25T14:45:13;100368.19;;;6.22;47.48
53514;BME280;39768;54.148;12.174;2024-03-25T14:49:14;100365.22;;;6.29;47.21
53514;BME280;39768;54.148;12.174;2024-03-25T14:53:14;100363.16;;;5.91;47.54
53514;BME280;39768;54.148;12.174;2024-03-25T14:57:16;100361.22;;;6.17;47.89
53514;BME280;39768;54.148;12.174;2024-03-25T15:01:17;100366.22;;;6.27;46.46
53514;BME280;39768;54.148;12.174;2024-03-25T15:05:18;100364.13;;;6.58;45.92
53514;BME280;39768;54.148;12.174;2024-03-25T15:09:19;100361.94;;;6.68;46.67
53514;BME280;39768;54.148;12.174;2024-03-25T15:13:20;100366.19;;;7.36;45.46
53514;BME280;39768;54.148;12.174;2024-03-25T15:17:21;100363.09;;;7.25;43.80
53514;BME280;39768;54.148;12.174;2024-03-25T15:21:22;100353.88;;;7.32;44.25
53514;BME280;39768;54.148;12.174;2024-03-25T15:25:23;100358.94;;;7.38;43.67
53514;BME280;39768;54.148;12.174;2024-03-25T15:29:24;100362.69;;;7.34;43.99
53514;BME280;39768;54.148;12.174;2024-03-25T15:33:25;100366.00;;;7.61;44.09
53514;BME280;39768;54.148;12.174;2024-03-25T15:37:26;100362.38;;;6.57;44.03
53514;BME280;39768;54.148;12.174;2024-03-25T15:41:26;100366.63;;;7.05;42.85
53514;BME280;39768;54.148;12.174;2024-03-25T15:45:28;100362.19;;;7.04;43.62
53514;BME280;39768;54.148;12.174;2024-03-25T15:49:31;100360.44;;;6.82;43.92
53514;BME280;39768;54.148;12.174;2024-03-25T15:53:33;100372.84;;;6.40;43.25
53514;BME280;39768;54.148;12.174;2024-03-25T15:57:34;100366.72;;;6.36;43.39
53514;BME280;39768;54.148;12.174;2024-03-25T16:01:35;100363.84;;;6.64;44.20
53514;BME280;39768;54.148;12.174;2024-03-25T16:05:36;100362.44;;;6.56;43.93
53514;BME280;39768;54.148;12.174;2024-03-25T16:09:37;100364.91;;;6.82;43.33
53514;BME280;39768;54.148;12.174;2024-03-25T16:13:38;100360.28;;;7.07;42.47
53514;BME280;39768;54.148;12.174;2024-03-25T16:17:39;100358.16;;;7.15;42.95
53514;BME280;39768;54.148;12.174;2024-03-25T16:21:40;100360.97;;;6.91;42.92
53514;BME280;39768;54.148;12.174;2024-03-25T16:25:41;100368.66;;;7.20;41.78
53514;BME280;39768;54.148;12.174;2024-03-25T16:29:41;100368.28;;;7.29;41.00
53514;BME280;39768;54.148;12.174;2024-03-25T16:33:42;100371.47;;;7.17;40.46
53514;BME280;39768;54.148;12.174;2024-03-25T16:37:43;100373.47;;;7.12;40.06
53514;BME280;39768;54.148;12.174;2024-03-25T16:41:44;100374.34;;;6.91;41.21
53514;BME280;39768;54.148;12.174;2024-03-25T16:45:44;100371.66;;;7.33;41.22
53514;BME280;39768;54.148;12.174;2024-03-25T16:49:45;100381.00;;;7.44;40.22
53514;BME280;39768;54.148;12.174;2024-03-25T16:53:46;100361.69;;;7.16;40.57
53514;BME280;39768;54.148;12.174;2024-03-25T16:57:49;100367.78;;;7.19;41.49
53514;BME280;39768;54.148;12.174;2024-03-25T17:01:50;100364.81;;;7.05;40.97
53514;BME280;39768;54.148;12.174;2024-03-25T17:05:51;100361.25;;;6.84;41.64
53514;BME280;39768;54.148;12.174;2024-03-25T17:09:52;100368.59;;;6.58;41.51
53514;BME280;39768;54.148;12.174;2024-03-25T17:13:52;100372.19;;;6.57;41.82
53514;BME280;39768;54.148;12.174;2024-03-25T17:17:53;100371.47;;;6.51;41.79
53514;BME280;39768;54.148;12.174;2024-03-25T17:21:54;100372.72;;;6.20;42.96
53514;BME280;39768;54.148;12.174;2024-03-25T17:25:55;100371.16;;;6.14;43.33
53514;BME280;39768;54.148;12.174;2024-03-25T17:29:56;100368.59;;;5.88;41.58
53514;BME280;39768;54.148;12.174;2024-03-25T17:33:56;100367.56;;;5.92;42.68
53514;BME280;39768;54.148;12.174;2024-03-25T17:37:57;100367.66;;;5.65;43.35
53514;BME280;39768;54.148;12.174;2024-03-25T17:41:58;100370.41;;;5.37;44.57
53514;BME280;39768;54.148;12.174;2024-03-25T17:46:02;100367.91;;;5.33;44.48
53514;BME280;39768;54.148;12.174;2024-03-25T17:50:03;100366.19;;;4.79;46.32
53514;BME280;39768;54.148;12.174;2024-03-25T17:54:06;100366.28;;;4.76;46.61
53514;BME280;39768;54.148;12.174;2024-03-25T17:58:10;100365.09;;;4.85;46.21
53514;BME280;39768;54.148;12.174;2024-03-25T18:02:11;100366.44;;;4.71;45.39
53514;BME280;39768;54.148;12.174;2024-03-25T18:06:12;100363.75;;;4.16;48.62
53514;BME280;39768;54.148;12.174;2024-03-25T18:10:13;100361.81;;;4.50;46.79
53514;BME280;39768;54.148;12.174;2024-03-25T18:14:14;100359.88;;;4.54;46.90
53514;BME280;39768;54.148;12.174;2024-03-25T18:18:15;100371.75;;;4.16;47.42
53514;BME280;39768;54.148;12.174;2024-03-25T18:22:16;100368.25;;;4.12;47.63
53514;BME280;39768;54.148;12.174;2024-03-25T18:26:17;100367.94;;;3.93;48.78
53514;BME280;39768;54.148;12.174;2024-03-25T18:30:18;100362.31;;;3.08;49.99
53514;BME280;39768;54.148;12.174;2024-03-25T18:34:18;100366.91;;;3.68;49.98
53514;BME280;39768;54.148;12.174;2024-03-25T18:38:19;100355.03;;;3.47;50.75
53514;BME280;39768;54.148;12.174;2024-03-25T18:42:20;100372.50;;;3.90;49.14
53514;BME280;39768;54.148;12.174;2024-03-25T18:46:21;100373.75;;;3.77;49.44
53514;BME280;39768;54.148;12.174;2024-03-25T18:50:22;100361.13;;;3.52;50.44
53514;BME280;39768;54.148;12.174;2024-03-25T18:54:22;100352.53;;;3.43;50.03
53514;BME280;39768;54.148;12.174;2024-03-25T18:58:23;100360.22;;;3.84;49.82
53514;BME280;39768;54.148;12.174;2024-03-25T19:02:24;100351.53;;;4.07;49.44
53514;BME280;39768;54.148;12.174;2024-03-25T19:06:25;100362.59;;;3.93;49.07
53514;BME280;39768;54.148;12.174;2024-03-25T19:10:26;100359.59;;;4.05;49.83
53514;BME280;39768;54.148;12.174;2024-03-25T19:14:47;100357.56;;;4.14;48.67
53514;BME280;39768;54.148;12.174;2024-03-25T19:19:07;100359.34;;;4.13;49.77
53514;BME280;39768;54.148;12.174;2024-03-25T19:23:27;100357.22;;;4.26;49.64
53514;BME280;39768;54.148;12.174;2024-03-25T19:27:27;100355.34;;;4.29;49.52
53514;BME280;39768;54.148;12.174;2024-03-25T19:31:28;100351.97;;;4.23;49.98
53514;BME280;39768;54.148;12.174;2024-03-25T19:35:28;100359.41;;;4.12;50.21
53514;BME280;39768;54.148;12.174;2024-03-25T19:39:29;100356.78;;;4.10;50.25
53514;BME280;39768;54.148;12.174;2024-03-25T19:43:31;100353.63;;;4.27;50.27
53514;BME280;39768;54.148;12.174;2024-03-25T19:47:31;100347.88;;;4.11;50.55
53514;BME280;39768;54.148;12.174;2024-03-25T19:51:32;100356.16;;;4.02;53.28
53514;BME280;39768;54.148;12.174;2024-03-25T19:55:33;100358.84;;;4.00;53.93
53514;BME280;39768;54.148;12.174;2024-03-25T19:59:33;100357.09;;;3.99;54.55
53514;BME280;39768;54.148;12.174;2024-03-25T20:03:34;100356.06;;;4.05;54.53
53514;BME280;39768;54.148;12.174;2024-03-25T20:07:36;100371.16;;;4.04;54.10
53514;BME280;39768;54.148;12.174;2024-03-25T20:11:36;100370.78;;;3.87;54.41
53514;BME280;39768;54.148;12.174;2024-03-25T20:15:37;100367.56;;;3.76;53.78
53514;BME280;39768;54.148;12.174;2024-03-25T20:19:37;100365.84;;;3.43;56.33
53514;BME280;39768;54.148;12.174;2024-03-25T20:23:39;100359.25;;;3.56;55.54
53514;BME280;39768;54.148;12.174;2024-03-25T20:27:39;100368.25;;;3.52;56.13
53514;BME280;39768;54.148;12.174;2024-03-25T20:31:40;100371.03;;;3.47;55.32
53514;BME280;39768;54.148;12.174;2024-03-25T20:35:40;100369.41;;;3.42;56.39
53514;BME280;39768;54.148;12.174;2024-03-25T20:39:41;100365.19;;;3.00;57.13
53514;BME280;39768;54.148;12.174;2024-03-25T20:43:41;100368.59;;;2.70;59.55
53514;BME280;39768;54.148;12.174;2024-03-25T20:47:42;100367.78;;;2.66;60.66
53514;BME280;39768;54.148;12.174;2024-03-25T20:51:43;100365.97;;;3.04;59.37
53514;BME280;39768;54.148;12.174;2024-03-25T20:55:43;100367.34;;;2.86;59.40
53514;BME280;39768;54.148;12.174;2024-03-25T20:59:44;100357.44;;;2.91;59.72
53514;BME280;39768;54.148;12.174;2024-03-25T21:03:45;100360.03;;;2.94;59.25
53514;BME280;39768;54.148;12.174;2024-03-25T21:07:45;100352.94;;;2.19;63.38